sensor_id;sensor_type;location;lat;lon;timestamp;P1;durP1;ratioP1;P2;durP2;ratioP2
62582;SDS011;48641;51.676;5.808;2023-02-15T00:01:53;9.20;;;3.85;;
62582;SDS011;48641;51.676;5.808;2023-02-15T00:04:21;7.00;;;3.10;;
62582;SDS011;48641;51.676;5.808;2023-02-15T00:06:48;7.97;;;3.35;;
62582;SDS011;48641;51.676;5.808;2023-02-15T00:09:15;8.63;;;3.67;;
62582;SDS011;48641;51.676;5.808;2023-02-15T00:11:40;6.97;;;3.25;;
62582;SDS011;48641;51.676;5.808;2023-02-15T00:14:16;8.07;;;3.60;;
62582;SDS011;48641;51.676;5.808;2023-02-15T00:16:46;6.60;;;3.30;;
62582;SDS011;48641;51.676;5.808;2023-02-15T00:19:13;8.75;;;3.42;;
62582;SDS011;48641;51.676;5.808;2023-02-15T00:21:40;8.10;;;3.80;;
62582;SDS011;48641;51.676;5.808;2023-02-15T00:24:07;8.77;;;3.50;;
62582;SDS011;48641;51.676;5.808;2023-02-15T00:26:34;6.97;;;3.30;;
62582;SDS011;48641;51.676;5.808;2023-02-15T00:29:00;7.47;;;3.30;;
62582;SDS011;48641;51.676;5.808;2023-02-15T00:31:26;7.85;;;3.72;;
62582;SDS011;48641;51.676;5.808;2023-02-15T00:33:55;8.50;;;3.70;;
62582;SDS011;48641;51.676;5.808;2023-02-15T00:36:25;7.80;;;3.47;;
62582;SDS011;48641;51.676;5.808;2023-02-15T00:38:51;7.50;;;3.45;;
62582;SDS011;48641;51.676;5.808;2023-02-15T00:41:16;7.60;;;3.38;;
62582;SDS011;48641;51.676;5.808;2023-02-15T00:43:42;6.75;;;3.28;;
62582;SDS011;48641;51.676;5.808;2023-02-15T00:46:07;7.20;;;3.08;;
62582;SDS011;48641;51.676;5.808;2023-02-15T00:48:33;7.60;;;3.63;;
62582;SDS011;48641;51.676;5.808;2023-02-15T00:50:59;9.23;;;3.33;;
62582;SDS011;48641;51.676;5.808;2023-02-15T00:53:26;6.68;;;3.08;;
62582;SDS011;48641;51.676;5.808;2023-02-15T00:55:52;6.45;;;3.38;;
62582;SDS011;48641;51.676;5.808;2023-02-15T00:58:18;7.57;;;3.72;;
62582;SDS011;48641;51.676;5.808;2023-02-15T01:00:44;6.63;;;2.90;;
62582;SDS011;48641;51.676;5.808;2023-02-15T01:03:11;7.35;;;3.15;;
62582;SDS011;48641;51.676;5.808;2023-02-15T01:05:38;7.28;;;2.90;;
62582;SDS011;48641;51.676;5.808;2023-02-15T01:08:04;7.80;;;3.80;;
62582;SDS011;48641;51.676;5.808;2023-02-15T01:10:30;7.72;;;3.45;;
62582;SDS011;48641;51.676;5.808;2023-02-15T01:12:57;7.07;;;3.35;;
62582;SDS011;48641;51.676;5.808;2023-02-15T01:15:23;8.32;;;3.63;;
62582;SDS011;48641;51.676;5.808;2023-02-15T01:17:49;7.43;;;3.47;;
62582;SDS011;48641;51.676;5.808;2023-02-15T01:20:24;6.05;;;2.80;;
62582;SDS011;48641;51.676;5.808;2023-02-15T01:22:52;6.70;;;3.35;;
62582;SDS011;48641;51.676;5.808;2023-02-15T01:25:19;7.10;;;3.45;;
62582;SDS011;48641;51.676;5.808;2023-02-15T01:27:46;7.72;;;3.50;;
62582;SDS011;48641;51.676;5.808;2023-02-15T01:30:12;7.00;;;3.05;;
62582;SDS011;48641;51.676;5.808;2023-02-15T01:32:39;6.97;;;2.95;;
62582;SDS011;48641;51.676;5.808;2023-02-15T01:35:05;6.80;;;3.00;;
62582;SDS011;48641;51.676;5.808;2023-02-15T01:37:31;6.80;;;3.08;;
62582;SDS011;48641;51.676;5.808;2023-02-15T01:39:57;7.50;;;3.50;;
62582;SDS011;48641;51.676;5.808;2023-02-15T01:42:25;7.43;;;3.17;;
62582;SDS011;48641;51.676;5.808;2023-02-15T01:47:36;6.03;;;2.78;;
62582;SDS011;48641;51.676;5.808;2023-02-15T01:50:38;6.38;;;3.13;;
62582;SDS011;48641;51.676;5.808;2023-02-15T01:53:16;6.57;;;2.90;;
62582;SDS011;48641;51.676;5.808;2023-02-15T01:55:47;6.75;;;3.13;;
62582;SDS011;48641;51.676;5.808;2023-02-15T01:58:35;6.78;;;3.28;;
62582;SDS011;48641;51.676;5.808;2023-02-15T02:01:02;7.40;;;3.20;;
62582;SDS011;48641;51.676;5.808;2023-02-15T02:03:36;7.28;;;3.10;;
62582;SDS011;48641;51.676;5.808;2023-02-15T02:06:23;7.70;;;3.20;;
62582;SDS011;48641;51.676;5.808;2023-02-15T02:08:49;7.18;;;3.47;;
62582;SDS011;48641;51.676;5.808;2023-02-15T02:11:15;7.13;;;3.20;;
62582;SDS011;48641;51.676;5.808;2023-02-15T02:13:41;6.57;;;2.97;;
62582;SDS011;48641;51.676;5.808;2023-02-15T02:16:10;7.05;;;3.10;;
62582;SDS011;48641;51.676;5.808;2023-02-15T02:27:22;7.85;;;3.30;;
62582;SDS011;48641;51.676;5.808;2023-02-15T02:30:06;6.43;;;2.72;;
62582;SDS011;48641;51.676;5.808;2023-02-15T02:44:14;6.55;;;3.15;;
62582;SDS011;48641;51.676;5.808;2023-02-15T02:49:35;5.90;;;2.65;;
62582;SDS011;48641;51.676;5.808;2023-02-15T02:52:07;6.20;;;2.85;;
62582;SDS011;48641;51.676;5.808;2023-02-15T02:54:59;6.78;;;3.08;;
62582;SDS011;48641;51.676;5.808;2023-02-15T02:57:26;6.45;;;2.90;;
62582;SDS011;48641;51.676;5.808;2023-02-15T02:59:53;6.40;;;2.60;;
62582;SDS011;48641;51.676;5.808;2023-02-15T03:02:21;6.03;;;2.90;;
62582;SDS011;48641;51.676;5.808;2023-02-15T03:04:57;6.88;;;3.08;;
62582;SDS011;48641;51.676;5.808;2023-02-15T03:07:28;6.03;;;2.60;;
62582;SDS011;48641;51.676;5.808;2023-02-15T03:09:59;7.03;;;3.15;;
62582;SDS011;48641;51.676;5.808;2023-02-15T03:12:31;6.50;;;3.00;;
62582;SDS011;48641;51.676;5.808;2023-02-15T03:17:32;6.13;;;2.75;;
62582;SDS011;48641;51.676;5.808;2023-02-15T03:20:01;6.43;;;2.70;;
62582;SDS011;48641;51.676;5.808;2023-02-15T03:22:48;6.22;;;2.90;;
62582;SDS011;48641;51.676;5.808;2023-02-15T03:25:36;8.05;;;3.10;;
62582;SDS011;48641;51.676;5.808;2023-02-15T03:28:08;6.18;;;2.80;;
62582;SDS011;48641;51.676;5.808;2023-02-15T03:30:41;6.28;;;2.90;;
62582;SDS011;48641;51.676;5.808;2023-02-15T03:33:10;6.35;;;2.90;;
62582;SDS011;48641;51.676;5.808;2023-02-15T03:38:38;6.75;;;2.78;;
62582;SDS011;48641;51.676;5.808;2023-02-15T03:41:12;6.03;;;2.90;;
62582;SDS011;48641;51.676;5.808;2023-02-15T03:43:54;6.30;;;2.70;;
62582;SDS011;48641;51.676;5.808;2023-02-15T03:46:25;6.18;;;2.55;;
62582;SDS011;48641;51.676;5.808;2023-02-15T03:49:18;6.53;;;2.88;;
62582;SDS011;48641;51.676;5.808;2023-02-15T03:51:49;6.43;;;2.85;;
62582;SDS011;48641;51.676;5.808;2023-02-15T03:57:02;6.38;;;2.65;;
62582;SDS011;48641;51.676;5.808;2023-02-15T03:59:46;5.90;;;2.60;;
62582;SDS011;48641;51.676;5.808;2023-02-15T04:02:33;6.25;;;2.75;;
62582;SDS011;48641;51.676;5.808;2023-02-15T04:05:08;7.35;;;2.88;;
62582;SDS011;48641;51.676;5.808;2023-02-15T04:07:33;5.95;;;2.42;;
62582;SDS011;48641;51.676;5.808;2023-02-15T04:09:59;5.45;;;2.42;;
62582;SDS011;48641;51.676;5.808;2023-02-15T04:12:43;6.15;;;3.22;;
62582;SDS011;48641;51.676;5.808;2023-02-15T04:15:11;5.85;;;2.67;;
62582;SDS011;48641;51.676;5.808;2023-02-15T04:17:56;6.38;;;2.85;;
62582;SDS011;48641;51.676;5.808;2023-02-15T04:20:21;6.80;;;2.90;;
62582;SDS011;48641;51.676;5.808;2023-02-15T04:23:06;6.45;;;3.13;;
62582;SDS011;48641;51.676;5.808;2023-02-15T04:25:50;6.78;;;3.20;;
62582;SDS011;48641;51.676;5.808;2023-02-15T04:28:16;6.97;;;2.80;;
62582;SDS011;48641;51.676;5.808;2023-02-15T04:30:41;5.55;;;2.47;;
62582;SDS011;48641;51.676;5.808;2023-02-15T04:33:07;4.85;;;2.25;;
62582;SDS011;48641;51.676;5.808;2023-02-15T04:35:33;5.65;;;2.75;;
62582;SDS011;48641;51.676;5.808;2023-02-15T04:37:58;6.47;;;2.70;;
62582;SDS011;48641;51.676;5.808;2023-02-15T04:40:24;5.90;;;2.53;;
62582;SDS011;48641;51.676;5.808;2023-02-15T04:42:50;5.88;;;2.80;;
62582;SDS011;48641;51.676;5.808;2023-02-15T04:45:15;6.80;;;2.85;;
62582;SDS011;48641;51.676;5.808;2023-02-15T04:47:42;6.93;;;2.78;;
62582;SDS011;48641;51.676;5.808;2023-02-15T04:50:07;6.30;;;2.75;;
62582;SDS011;48641;51.676;5.808;2023-02-15T04:52:33;6.03;;;2.67;;
62582;SDS011;48641;51.676;5.808;2023-02-15T04:54:59;6.63;;;2.75;;
62582;SDS011;48641;51.676;5.808;2023-02-15T04:57:24;6.07;;;2.42;;
62582;SDS011;48641;51.676;5.808;2023-02-15T04:59:50;7.45;;;2.90;;
62582;SDS011;48641;51.676;5.808;2023-02-15T05:02:16;5.90;;;2.40;;
62582;SDS011;48641;51.676;5.808;2023-02-15T05:04:41;6.38;;;2.90;;
62582;SDS011;48641;51.676;5.808;2023-02-15T05:07:07;7.57;;;2.88;;
62582;SDS011;48641;51.676;5.808;2023-02-15T05:09:32;5.45;;;2.42;;
62582;SDS011;48641;51.676;5.808;2023-02-15T05:11:58;7.07;;;3.17;;
62582;SDS011;48641;51.676;5.808;2023-02-15T05:14:23;5.70;;;2.70;;
62582;SDS011;48641;51.676;5.808;2023-02-15T05:16:52;6.63;;;2.63;;
62582;SDS011;48641;51.676;5.808;2023-02-15T05:19:19;7.03;;;2.60;;
62582;SDS011;48641;51.676;5.808;2023-02-15T05:21:44;8.27;;;2.97;;
62582;SDS011;48641;51.676;5.808;2023-02-15T05:24:10;6.82;;;3.00;;
62582;SDS011;48641;51.676;5.808;2023-02-15T05:26:54;6.35;;;2.78;;
62582;SDS011;48641;51.676;5.808;2023-02-15T05:29:39;6.35;;;2.70;;
62582;SDS011;48641;51.676;5.808;2023-02-15T05:32:04;8.05;;;3.35;;
62582;SDS011;48641;51.676;5.808;2023-02-15T05:34:30;6.50;;;2.78;;
62582;SDS011;48641;51.676;5.808;2023-02-15T05:36:55;6.78;;;2.90;;
62582;SDS011;48641;51.676;5.808;2023-02-15T05:39:21;6.65;;;2.92;;
62582;SDS011;48641;51.676;5.808;2023-02-15T05:41:46;6.82;;;2.90;;
62582;SDS011;48641;51.676;5.808;2023-02-15T05:44:12;6.35;;;2.58;;
62582;SDS011;48641;51.676;5.808;2023-02-15T05:46:38;7.13;;;2.58;;
62582;SDS011;48641;51.676;5.808;2023-02-15T05:49:03;6.13;;;2.80;;
62582;SDS011;48641;51.676;5.808;2023-02-15T05:51:29;7.75;;;2.78;;
62582;SDS011;48641;51.676;5.808;2023-02-15T05:53:54;6.00;;;2.97;;
62582;SDS011;48641;51.676;5.808;2023-02-15T05:56:20;6.53;;;2.88;;
62582;SDS011;48641;51.676;5.808;2023-02-15T05:58:45;7.60;;;3.00;;
62582;SDS011;48641;51.676;5.808;2023-02-15T06:01:12;6.85;;;3.03;;
62582;SDS011;48641;51.676;5.808;2023-02-15T06:03:43;6.45;;;2.58;;
62582;SDS011;48641;51.676;5.808;2023-02-15T06:06:09;7.13;;;2.92;;
62582;SDS011;48641;51.676;5.808;2023-02-15T06:08:35;7.10;;;2.80;;
62582;SDS011;48641;51.676;5.808;2023-02-15T06:11:01;6.70;;;2.85;;
62582;SDS011;48641;51.676;5.808;2023-02-15T06:13:27;6.90;;;3.03;;
62582;SDS011;48641;51.676;5.808;2023-02-15T06:15:53;6.80;;;2.90;;
62582;SDS011;48641;51.676;5.808;2023-02-15T06:18:19;8.02;;;3.22;;
62582;SDS011;48641;51.676;5.808;2023-02-15T06:20:48;8.05;;;2.97;;
62582;SDS011;48641;51.676;5.808;2023-02-15T06:23:14;7.00;;;3.08;;
62582;SDS011;48641;51.676;5.808;2023-02-15T06:25:40;7.07;;;2.95;;
62582;SDS011;48641;51.676;5.808;2023-02-15T06:28:06;7.13;;;2.92;;
62582;SDS011;48641;51.676;5.808;2023-02-15T06:30:31;6.55;;;2.97;;
62582;SDS011;48641;51.676;5.808;2023-02-15T06:32:57;6.80;;;2.90;;
62582;SDS011;48641;51.676;5.808;2023-02-15T06:35:23;7.05;;;2.88;;
62582;SDS011;48641;51.676;5.808;2023-02-15T06:37:49;6.13;;;2.60;;
62582;SDS011;48641;51.676;5.808;2023-02-15T06:40:14;6.68;;;3.08;;
62582;SDS011;48641;51.676;5.808;2023-02-15T06:42:41;7.10;;;3.20;;
62582;SDS011;48641;51.676;5.808;2023-02-15T06:45:07;6.32;;;2.58;;
62582;SDS011;48641;51.676;5.808;2023-02-15T06:47:33;6.57;;;2.65;;
62582;SDS011;48641;51.676;5.808;2023-02-15T06:49:59;7.13;;;3.17;;
62582;SDS011;48641;51.676;5.808;2023-02-15T06:52:25;6.68;;;3.22;;
62582;SDS011;48641;51.676;5.808;2023-02-15T06:54:50;6.88;;;3.22;;
62582;SDS011;48641;51.676;5.808;2023-02-15T06:57:16;6.60;;;2.95;;
62582;SDS011;48641;51.676;5.808;2023-02-15T06:59:42;6.45;;;3.28;;
62582;SDS011;48641;51.676;5.808;2023-02-15T07:02:11;6.90;;;3.10;;
62582;SDS011;48641;51.676;5.808;2023-02-15T07:04:37;6.80;;;2.70;;
62582;SDS011;48641;51.676;5.808;2023-02-15T07:07:09;6.63;;;2.95;;
62582;SDS011;48641;51.676;5.808;2023-02-15T07:09:36;7.00;;;3.22;;
62582;SDS011;48641;51.676;5.808;2023-02-15T07:12:02;7.50;;;3.05;;
62582;SDS011;48641;51.676;5.808;2023-02-15T07:14:47;7.20;;;3.05;;
62582;SDS011;48641;51.676;5.808;2023-02-15T07:17:12;6.85;;;2.92;;
62582;SDS011;48641;51.676;5.808;2023-02-15T07:19:38;6.93;;;2.80;;
62582;SDS011;48641;51.676;5.808;2023-02-15T07:22:03;7.30;;;3.10;;
62582;SDS011;48641;51.676;5.808;2023-02-15T07:24:30;7.13;;;3.08;;
62582;SDS011;48641;51.676;5.808;2023-02-15T07:26:56;7.95;;;3.05;;
62582;SDS011;48641;51.676;5.808;2023-02-15T07:29:22;7.78;;;3.55;;
62582;SDS011;48641;51.676;5.808;2023-02-15T07:31:48;6.70;;;2.83;;
62582;SDS011;48641;51.676;5.808;2023-02-15T07:34:14;7.47;;;3.33;;
62582;SDS011;48641;51.676;5.808;2023-02-15T07:36:40;6.55;;;3.05;;
62582;SDS011;48641;51.676;5.808;2023-02-15T07:39:07;6.95;;;2.95;;
62582;SDS011;48641;51.676;5.808;2023-02-15T07:41:32;7.65;;;3.20;;
62582;SDS011;48641;51.676;5.808;2023-02-15T07:43:58;6.15;;;2.55;;
62582;SDS011;48641;51.676;5.808;2023-02-15T07:46:23;7.10;;;3.00;;
62582;SDS011;48641;51.676;5.808;2023-02-15T07:48:49;6.47;;;2.50;;
62582;SDS011;48641;51.676;5.808;2023-02-15T07:51:15;7.93;;;3.45;;
62582;SDS011;48641;51.676;5.808;2023-02-15T07:53:40;7.50;;;2.75;;
62582;SDS011;48641;51.676;5.808;2023-02-15T07:56:08;9.48;;;3.17;;
62582;SDS011;48641;51.676;5.808;2023-02-15T08:01:23;6.72;;;2.70;;
62582;SDS011;48641;51.676;5.808;2023-02-15T08:03:54;8.48;;;3.15;;
62582;SDS011;48641;51.676;5.808;2023-02-15T08:06:21;7.68;;;3.20;;
62582;SDS011;48641;51.676;5.808;2023-02-15T08:08:49;7.03;;;3.03;;
62582;SDS011;48641;51.676;5.808;2023-02-15T08:11:16;7.32;;;3.42;;
62582;SDS011;48641;51.676;5.808;2023-02-15T08:16:37;8.38;;;3.53;;
62582;SDS011;48641;51.676;5.808;2023-02-15T08:19:13;7.15;;;3.20;;
62582;SDS011;48641;51.676;5.808;2023-02-15T08:21:46;7.07;;;2.97;;
62582;SDS011;48641;51.676;5.808;2023-02-15T08:24:15;7.72;;;3.28;;
62582;SDS011;48641;51.676;5.808;2023-02-15T08:26:43;6.35;;;2.97;;
62582;SDS011;48641;51.676;5.808;2023-02-15T08:29:11;7.30;;;3.15;;
62582;SDS011;48641;51.676;5.808;2023-02-15T08:31:38;7.10;;;3.05;;
62582;SDS011;48641;51.676;5.808;2023-02-15T08:34:07;7.03;;;3.45;;
62582;SDS011;48641;51.676;5.808;2023-02-15T08:36:33;6.93;;;3.20;;
62582;SDS011;48641;51.676;5.808;2023-02-15T08:39:00;7.72;;;3.08;;
62582;SDS011;48641;51.676;5.808;2023-02-15T08:41:29;7.30;;;3.38;;
62582;SDS011;48641;51.676;5.808;2023-02-15T08:43:57;7.03;;;3.17;;
62582;SDS011;48641;51.676;5.808;2023-02-15T08:46:25;8.73;;;4.03;;
62582;SDS011;48641;51.676;5.808;2023-02-15T08:48:52;8.68;;;3.45;;
62582;SDS011;48641;51.676;5.808;2023-02-15T08:51:18;9.32;;;3.90;;
62582;SDS011;48641;51.676;5.808;2023-02-15T08:53:56;9.75;;;4.10;;
62582;SDS011;48641;51.676;5.808;2023-02-15T08:56:24;13.55;;;4.95;;
62582;SDS011;48641;51.676;5.808;2023-02-15T08:58:52;10.70;;;5.13;;
62582;SDS011;48641;51.676;5.808;2023-02-15T09:01:20;11.27;;;5.05;;
62582;SDS011;48641;51.676;5.808;2023-02-15T09:03:49;14.50;;;6.00;;
62582;SDS011;48641;51.676;5.808;2023-02-15T09:06:18;13.40;;;5.90;;
62582;SDS011;48641;51.676;5.808;2023-02-15T09:08:44;12.50;;;5.75;;
62582;SDS011;48641;51.676;5.808;2023-02-15T09:11:11;11.52;;;6.22;;
62582;SDS011;48641;51.676;5.808;2023-02-15T09:13:39;14.45;;;6.38;;
62582;SDS011;48641;51.676;5.808;2023-02-15T09:16:05;11.82;;;6.35;;
62582;SDS011;48641;51.676;5.808;2023-02-15T09:18:34;15.77;;;6.40;;
62582;SDS011;48641;51.676;5.808;2023-02-15T09:21:09;13.88;;;7.10;;
62582;SDS011;48641;51.676;5.808;2023-02-15T09:23:38;15.40;;;7.10;;
62582;SDS011;48641;51.676;5.808;2023-02-15T09:26:06;15.73;;;7.85;;
62582;SDS011;48641;51.676;5.808;2023-02-15T09:28:33;14.30;;;7.65;;
62582;SDS011;48641;51.676;5.808;2023-02-15T09:33:32;16.20;;;7.70;;
62582;SDS011;48641;51.676;5.808;2023-02-15T09:36:00;15.07;;;7.93;;
62582;SDS011;48641;51.676;5.808;2023-02-15T09:38:26;16.08;;;8.10;;
62582;SDS011;48641;51.676;5.808;2023-02-15T09:41:08;13.95;;;7.88;;
62582;SDS011;48641;51.676;5.808;2023-02-15T09:52:22;18.02;;;8.80;;
62582;SDS011;48641;51.676;5.808;2023-02-15T09:57:38;16.80;;;9.43;;
62582;SDS011;48641;51.676;5.808;2023-02-15T10:03:08;16.58;;;9.27;;
62582;SDS011;48641;51.676;5.808;2023-02-15T10:11:06;23.10;;;11.57;;
62582;SDS011;48641;51.676;5.808;2023-02-15T10:14:20;26.83;;;11.27;;
62582;SDS011;48641;51.676;5.808;2023-02-15T10:29:02;73.15;;;36.80;;
62582;SDS011;48641;51.676;5.808;2023-02-15T10:50:49;34.47;;;20.33;;
62582;SDS011;48641;51.676;5.808;2023-02-15T10:59:20;39.42;;;19.05;;
62582;SDS011;48641;51.676;5.808;2023-02-15T11:04:45;41.90;;;19.02;;
62582;SDS011;48641;51.676;5.808;2023-02-15T11:09:54;38.70;;;17.25;;
62582;SDS011;48641;51.676;5.808;2023-02-15T11:12:27;48.13;;;17.92;;
62582;SDS011;48641;51.676;5.808;2023-02-15T11:14:57;33.88;;;17.20;;
62582;SDS011;48641;51.676;5.808;2023-02-15T11:17:32;40.97;;;16.92;;
62582;SDS011;48641;51.676;5.808;2023-02-15T11:23:07;34.30;;;16.73;;
62582;SDS011;48641;51.676;5.808;2023-02-15T11:25:41;33.58;;;16.58;;
62582;SDS011;48641;51.676;5.808;2023-02-15T11:28:11;34.83;;;16.23;;
62582;SDS011;48641;51.676;5.808;2023-02-15T11:30:48;56.40;;;18.35;;
62582;SDS011;48641;51.676;5.808;2023-02-15T11:33:20;35.17;;;16.10;;
62582;SDS011;48641;51.676;5.808;2023-02-15T11:36:19;29.13;;;15.98;;
62582;SDS011;48641;51.676;5.808;2023-02-15T11:39:09;31.52;;;15.55;;
62582;SDS011;48641;51.676;5.808;2023-02-15T11:41:40;35.47;;;15.82;;
62582;SDS011;48641;51.676;5.808;2023-02-15T11:44:20;30.83;;;15.60;;
62582;SDS011;48641;51.676;5.808;2023-02-15T11:46:51;32.45;;;15.43;;
62582;SDS011;48641;51.676;5.808;2023-02-15T11:49:35;29.25;;;14.68;;
62582;SDS011;48641;51.676;5.808;2023-02-15T11:52:02;44.70;;;15.30;;
62582;SDS011;48641;51.676;5.808;2023-02-15T11:54:32;166.00;;;24.80;;
62582;SDS011;48641;51.676;5.808;2023-02-15T11:57:03;93.85;;;19.80;;
62582;SDS011;48641;51.676;5.808;2023-02-15T11:59:40;115.90;;;20.83;;
62582;SDS011;48641;51.676;5.808;2023-02-15T12:02:20;86.30;;;17.42;;
62582;SDS011;48641;51.676;5.808;2023-02-15T12:05:07;71.32;;;17.20;;
62582;SDS011;48641;51.676;5.808;2023-02-15T12:07:54;65.20;;;16.50;;
62582;SDS011;48641;51.676;5.808;2023-02-15T12:10:26;61.00;;;15.95;;
62582;SDS011;48641;51.676;5.808;2023-02-15T12:15:47;54.20;;;14.02;;
62582;SDS011;48641;51.676;5.808;2023-02-15T12:18:32;54.05;;;14.57;;
62582;SDS011;48641;51.676;5.808;2023-02-15T12:21:02;47.95;;;14.50;;
62582;SDS011;48641;51.676;5.808;2023-02-15T12:23:32;50.28;;;14.25;;
62582;SDS011;48641;51.676;5.808;2023-02-15T12:25:59;50.78;;;13.43;;
62582;SDS011;48641;51.676;5.808;2023-02-15T12:28:26;49.85;;;13.60;;
62582;SDS011;48641;51.676;5.808;2023-02-15T12:30:57;43.78;;;13.63;;
62582;SDS011;48641;51.676;5.808;2023-02-15T12:33:32;39.15;;;12.45;;
62582;SDS011;48641;51.676;5.808;2023-02-15T12:36:09;38.42;;;11.93;;
62582;SDS011;48641;51.676;5.808;2023-02-15T12:41:38;31.65;;;11.88;;
62582;SDS011;48641;51.676;5.808;2023-02-15T12:44:17;26.85;;;10.85;;
62582;SDS011;48641;51.676;5.808;2023-02-15T12:46:58;29.98;;;11.40;;
62582;SDS011;48641;51.676;5.808;2023-02-15T12:49:32;43.88;;;12.60;;
62582;SDS011;48641;51.676;5.808;2023-02-15T12:52:00;27.17;;;10.60;;
62582;SDS011;48641;51.676;5.808;2023-02-15T12:56:56;36.15;;;10.63;;
62582;SDS011;48641;51.676;5.808;2023-02-15T12:59:22;25.52;;;9.90;;
62582;SDS011;48641;51.676;5.808;2023-02-15T13:01:48;26.50;;;9.63;;
62582;SDS011;48641;51.676;5.808;2023-02-15T13:06:48;24.20;;;10.23;;
62582;SDS011;48641;51.676;5.808;2023-02-15T13:09:32;27.45;;;9.75;;
62582;SDS011;48641;51.676;5.808;2023-02-15T13:12:10;17.85;;;8.30;;
62582;SDS011;48641;51.676;5.808;2023-02-15T13:14:46;20.17;;;8.98;;
62582;SDS011;48641;51.676;5.808;2023-02-15T13:17:16;18.08;;;8.50;;
62582;SDS011;48641;51.676;5.808;2023-02-15T13:19:49;23.00;;;9.48;;
62582;SDS011;48641;51.676;5.808;2023-02-15T13:22:18;18.55;;;8.75;;
62582;SDS011;48641;51.676;5.808;2023-02-15T13:24:57;20.02;;;8.70;;
62582;SDS011;48641;51.676;5.808;2023-02-15T13:27:32;19.63;;;8.20;;
62582;SDS011;48641;51.676;5.808;2023-02-15T13:30:03;20.27;;;8.55;;
62582;SDS011;48641;51.676;5.808;2023-02-15T13:32:38;18.17;;;8.82;;
62582;SDS011;48641;51.676;5.808;2023-02-15T13:35:06;19.92;;;8.27;;
62582;SDS011;48641;51.676;5.808;2023-02-15T13:40:32;16.80;;;7.10;;
62582;SDS011;48641;51.676;5.808;2023-02-15T13:59:31;16.67;;;7.32;;
62582;SDS011;48641;51.676;5.808;2023-02-15T14:16:19;15.25;;;6.55;;
62582;SDS011;48641;51.676;5.808;2023-02-15T14:18:57;14.32;;;6.53;;
62582;SDS011;48641;51.676;5.808;2023-02-15T14:21:27;14.82;;;6.43;;
62582;SDS011;48641;51.676;5.808;2023-02-15T14:29:16;16.08;;;7.57;;
62582;SDS011;48641;51.676;5.808;2023-02-15T14:32:04;14.20;;;6.45;;
62582;SDS011;48641;51.676;5.808;2023-02-15T14:37:16;13.07;;;6.20;;
62582;SDS011;48641;51.676;5.808;2023-02-15T14:39:55;14.23;;;6.15;;
62582;SDS011;48641;51.676;5.808;2023-02-15T14:45:23;13.18;;;5.53;;
62582;SDS011;48641;51.676;5.808;2023-02-15T14:47:57;13.10;;;6.03;;
62582;SDS011;48641;51.676;5.808;2023-02-15T14:50:40;13.25;;;6.32;;
62582;SDS011;48641;51.676;5.808;2023-02-15T14:55:47;12.82;;;5.93;;
62582;SDS011;48641;51.676;5.808;2023-02-15T14:58:29;13.27;;;6.47;;
62582;SDS011;48641;51.676;5.808;2023-02-15T15:00:55;13.98;;;6.28;;
62582;SDS011;48641;51.676;5.808;2023-02-15T15:03:33;12.77;;;5.88;;
62582;SDS011;48641;51.676;5.808;2023-02-15T15:06:01;14.57;;;6.20;;
62582;SDS011;48641;51.676;5.808;2023-02-15T15:08:33;12.10;;;6.03;;
62582;SDS011;48641;51.676;5.808;2023-02-15T15:13:54;14.60;;;6.53;;
62582;SDS011;48641;51.676;5.808;2023-02-15T15:19:03;12.70;;;5.60;;
62582;SDS011;48641;51.676;5.808;2023-02-15T15:30:52;13.07;;;6.22;;
62582;SDS011;48641;51.676;5.808;2023-02-15T15:36:38;10.23;;;5.07;;
62582;SDS011;48641;51.676;5.808;2023-02-15T15:42:13;11.23;;;5.15;;
62582;SDS011;48641;51.676;5.808;2023-02-15T15:50:14;11.30;;;5.55;;
62582;SDS011;48641;51.676;5.808;2023-02-15T15:52:46;11.07;;;5.47;;
62582;SDS011;48641;51.676;5.808;2023-02-15T15:55:24;13.25;;;5.40;;
62582;SDS011;48641;51.676;5.808;2023-02-15T15:57:53;11.35;;;5.60;;
62582;SDS011;48641;51.676;5.808;2023-02-15T16:03:47;10.70;;;5.38;;
62582;SDS011;48641;51.676;5.808;2023-02-15T16:06:01;11.35;;;5.53;;
62582;SDS011;48641;51.676;5.808;2023-02-15T16:10:52;11.43;;;5.65;;
62582;SDS011;48641;51.676;5.808;2023-02-15T16:13:17;11.75;;;5.28;;
62582;SDS011;48641;51.676;5.808;2023-02-15T16:15:44;9.90;;;5.68;;
62582;SDS011;48641;51.676;5.808;2023-02-15T16:18:15;12.75;;;6.40;;
62582;SDS011;48641;51.676;5.808;2023-02-15T16:20:46;13.18;;;5.30;;
62582;SDS011;48641;51.676;5.808;2023-02-15T16:29:14;12.77;;;5.25;;
62582;SDS011;48641;51.676;5.808;2023-02-15T16:31:42;12.05;;;5.57;;
62582;SDS011;48641;51.676;5.808;2023-02-15T16:34:20;10.40;;;5.17;;
62582;SDS011;48641;51.676;5.808;2023-02-15T16:36:46;12.70;;;5.45;;
62582;SDS011;48641;51.676;5.808;2023-02-15T16:39:20;24.25;;;11.95;;
62582;SDS011;48641;51.676;5.808;2023-02-15T16:41:46;10.82;;;6.53;;
62582;SDS011;48641;51.676;5.808;2023-02-15T16:44:18;13.77;;;6.75;;
62582;SDS011;48641;51.676;5.808;2023-02-15T16:46:46;13.80;;;5.68;;
62582;SDS011;48641;51.676;5.808;2023-02-15T16:49:15;13.18;;;6.07;;
62582;SDS011;48641;51.676;5.808;2023-02-15T16:51:44;13.25;;;6.40;;
62582;SDS011;48641;51.676;5.808;2023-02-15T16:54:14;13.63;;;6.15;;
62582;SDS011;48641;51.676;5.808;2023-02-15T16:56:43;12.27;;;6.03;;
62582;SDS011;48641;51.676;5.808;2023-02-15T16:59:16;13.40;;;5.93;;
62582;SDS011;48641;51.676;5.808;2023-02-15T17:01:52;12.20;;;5.93;;
62582;SDS011;48641;51.676;5.808;2023-02-15T17:09:32;11.68;;;5.85;;
62582;SDS011;48641;51.676;5.808;2023-02-15T17:11:59;11.35;;;5.75;;
62582;SDS011;48641;51.676;5.808;2023-02-15T17:14:28;12.30;;;6.30;;
62582;SDS011;48641;51.676;5.808;2023-02-15T17:17:01;13.18;;;6.47;;
62582;SDS011;48641;51.676;5.808;2023-02-15T17:19:44;12.43;;;5.85;;
62582;SDS011;48641;51.676;5.808;2023-02-15T17:22:19;14.25;;;5.93;;
62582;SDS011;48641;51.676;5.808;2023-02-15T17:24:57;11.27;;;5.63;;
62582;SDS011;48641;51.676;5.808;2023-02-15T17:27:25;11.50;;;5.30;;
62582;SDS011;48641;51.676;5.808;2023-02-15T17:30:00;13.60;;;5.65;;
62582;SDS011;48641;51.676;5.808;2023-02-15T17:32:30;10.63;;;5.00;;
62582;SDS011;48641;51.676;5.808;2023-02-15T17:39:57;11.88;;;5.53;;
62582;SDS011;48641;51.676;5.808;2023-02-15T17:42:25;12.00;;;6.28;;
62582;SDS011;48641;51.676;5.808;2023-02-15T17:44:51;13.77;;;6.22;;
62582;SDS011;48641;51.676;5.808;2023-02-15T17:47:18;10.82;;;5.57;;
62582;SDS011;48641;51.676;5.808;2023-02-15T17:49:45;10.63;;;5.57;;
62582;SDS011;48641;51.676;5.808;2023-02-15T17:52:14;10.43;;;5.38;;
62582;SDS011;48641;51.676;5.808;2023-02-15T17:54:41;10.68;;;5.82;;
62582;SDS011;48641;51.676;5.808;2023-02-15T17:57:26;12.88;;;6.03;;
62582;SDS011;48641;51.676;5.808;2023-02-15T17:59:53;11.40;;;5.50;;
62582;SDS011;48641;51.676;5.808;2023-02-15T18:02:37;11.02;;;5.68;;
62582;SDS011;48641;51.676;5.808;2023-02-15T18:05:22;12.10;;;5.53;;
62582;SDS011;48641;51.676;5.808;2023-02-15T18:08:10;10.32;;;5.65;;
62582;SDS011;48641;51.676;5.808;2023-02-15T18:11:00;11.18;;;5.57;;
62582;SDS011;48641;51.676;5.808;2023-02-15T18:13:45;13.15;;;5.95;;
62582;SDS011;48641;51.676;5.808;2023-02-15T18:16:14;12.10;;;5.88;;
62582;SDS011;48641;51.676;5.808;2023-02-15T18:18:47;11.80;;;6.10;;
62582;SDS011;48641;51.676;5.808;2023-02-15T18:21:13;10.85;;;5.45;;
62582;SDS011;48641;51.676;5.808;2023-02-15T18:23:40;11.82;;;5.50;;
62582;SDS011;48641;51.676;5.808;2023-02-15T18:26:08;11.35;;;5.10;;
62582;SDS011;48641;51.676;5.808;2023-02-15T18:28:36;11.82;;;5.82;;
62582;SDS011;48641;51.676;5.808;2023-02-15T18:31:02;10.32;;;5.22;;
62582;SDS011;48641;51.676;5.808;2023-02-15T18:33:38;11.93;;;5.43;;
62582;SDS011;48641;51.676;5.808;2023-02-15T18:36:16;11.77;;;5.53;;